| time (UTC) | temp F | wind direction | speed knots | gust knots | rain 1hr in | rain 24hr in | rain mn in | humidity % | barometer mb |
| 20260507192914 | 93 | 226 | 2.6 | 4.3 | 0.00 | 0.00 | 0.00 | 14 | 1060.6 |
| 20260507192410 | 94 | 297 | 1.7 | 2.6 | 0.00 | 0.00 | 0.00 | 14 | 1060.6 |
| 20260507191907 | 94 | 235 | 4.3 | 4.3 | 0.00 | 0.00 | 0.00 | 13 | 1060.7 |
| 20260507191403 | 92 | 261 | 1.7 | 4.3 | 0.00 | 0.00 | 0.00 | 14 | 1061.0 |
| 20260507190859 | 91 | 305 | 4.3 | 5.2 | 0.00 | 0.00 | 0.00 | 15 | 1061.0 |
| 20260507190358 | 91 | 327 | 1.7 | 3.5 | 0.00 | 0.00 | 0.00 | 16 | 1061.0 |
| 20260507185857 | 91 | 256 | 0.9 | 1.7 | 0.00 | 0.00 | 0.00 | 16 | 1061.1 |
| 20260507185353 | 90 | 93 | 1.7 | 1.7 | 0.00 | 0.00 | 0.00 | 16 | 1061.2 |
| 20260507184850 | 90 | 93 | 1.7 | 1.7 | 0.00 | 0.00 | 0.00 | 16 | 1061.3 |
| 20260507184348 | 0 | 0.0 | 0.0 | 0.00 | 0.00 | 0.00 | 1061.2 | ||
| 20260507183844 | 0 | 0.0 | 0.0 | 0.00 | 0.00 | 0.00 | 1061.3 | ||
| 20260507183342 | 0 | 0.0 | 0.0 | 0.00 | 0.00 | 0.00 | 1061.4 | ||
| 20260507182839 | 0 | 0.0 | 0.0 | 0.00 | 0.00 | 0.00 | 1061.4 | ||
| 20260507182335 | 0 | 0.0 | 0.0 | 0.00 | 0.00 | 0.00 | 1061.4 | ||
| 20260507181831 | 86 | 298 | 0.9 | 1.7 | 0.00 | 0.00 | 0.00 | 20 | 1061.6 |
| 20260507181327 | 86 | 298 | 0.9 | 1.7 | 0.00 | 0.00 | 0.00 | 20 | 1061.6 |
| 20260507180825 | 86 | 298 | 0.9 | 1.7 | 0.00 | 0.00 | 0.00 | 20 | 1061.6 |
| 20260507180321 | 86 | 298 | 0.9 | 1.7 | 0.00 | 0.00 | 0.00 | 20 | 1061.8 |
| 20260507175817 | 86 | 298 | 0.9 | 1.7 | 0.00 | 0.00 | 0.00 | 20 | 1061.7 |
| 20260507175314 | 86 | 298 | 0.9 | 1.7 | 0.00 | 0.00 | 0.00 | 20 | 1061.8 |
| 20260507174811 | 86 | 298 | 0.9 | 1.7 | 0.00 | 0.00 | 0.00 | 20 | 1061.8 |
| 20260507174309 | 86 | 298 | 0.9 | 1.7 | 0.00 | 0.00 | 0.00 | 20 | 1061.8 |
| 20260507173806 | 86 | 298 | 0.9 | 1.7 | 0.00 | 0.00 | 0.00 | 20 | 1061.8 |
| 20260507173303 | 86 | 298 | 0.9 | 1.7 | 0.00 | 0.00 | 0.00 | 20 | 1062.1 |
| 20260507172800 | 86 | 298 | 0.9 | 1.7 | 0.00 | 0.00 | 0.00 | 20 | 1062.2 |
| 20260507172256 | 86 | 298 | 0.9 | 1.7 | 0.00 | 0.00 | 0.00 | 20 | 1062.0 |
| 20260507171752 | 87 | 290 | 0.0 | 1.7 | 0.00 | 0.00 | 0.00 | 21 | 1062.0 |
| 20260507171249 | 87 | 290 | 0.0 | 1.7 | 0.00 | 0.00 | 0.00 | 21 | 1062.3 |
| 20260507170746 | 86 | 238 | 1.7 | 1.7 | 0.00 | 0.00 | 0.00 | 22 | 1062.1 |
| 20260507170243 | 86 | 238 | 1.7 | 1.7 | 0.00 | 0.00 | 0.00 | 22 | 1062.2 |
| 20260507165738 | 86 | 238 | 1.7 | 1.7 | 0.00 | 0.00 | 0.00 | 22 | 1062.2 |
| 20260507165235 | 86 | 238 | 1.7 | 1.7 | 0.00 | 0.00 | 0.00 | 22 | 1062.4 |
| 20260507164731 | 86 | 238 | 1.7 | 1.7 | 0.00 | 0.00 | 0.00 | 22 | 1062.4 |
| 20260507164228 | 83 | 316 | 0.9 | 1.7 | 0.00 | 0.00 | 0.00 | 25 | 1062.3 |
| 20260507163725 | 83 | 316 | 0.9 | 1.7 | 0.00 | 0.00 | 0.00 | 25 | 1062.4 |
| 20260507163223 | 83 | 316 | 0.9 | 1.7 | 0.00 | 0.00 | 0.00 | 25 | 1062.3 |
| 20260507162719 | 83 | 316 | 0.9 | 1.7 | 0.00 | 0.00 | 0.00 | 25 | 1062.3 |
| 20260507162215 | 83 | 276 | 1.7 | 1.7 | 0.00 | 0.00 | 0.00 | 25 | 1062.4 |
| 20260507161712 | 83 | 276 | 1.7 | 1.7 | 0.00 | 0.00 | 0.00 | 25 | 1062.4 |
| 20260507161208 | 84 | 297 | 1.7 | 2.6 | 0.00 | 0.00 | 0.00 | 25 | 1062.4 |
| 20260507160704 | 83 | 274 | 0.0 | 3.5 | 0.00 | 0.00 | 0.00 | 25 | 1062.6 |
| 20260507160201 | 81 | 265 | 1.7 | 3.5 | 0.00 | 0.00 | 0.00 | 26 | 1062.5 |
| 20260507155656 | 80 | 298 | 1.7 | 2.6 | 0.00 | 0.00 | 0.00 | 28 | 1062.6 |
| 20260507155153 | 81 | 317 | 1.7 | 2.6 | 0.00 | 0.00 | 0.00 | 28 | 1062.5 |
| 20260507154650 | 80 | 278 | 0.0 | 2.6 | 0.00 | 0.00 | 0.00 | 28 | 1062.6 |
| 20260507154148 | 81 | 42 | 1.7 | 2.6 | 0.00 | 0.00 | 0.00 | 28 | 1062.8 |
| 20260507153644 | 81 | 34 | 0.9 | 1.7 | 0.00 | 0.00 | 0.00 | 28 | 1062.6 |
| 20260507153140 | 80 | 15 | 0.0 | 1.7 | 0.00 | 0.00 | 0.00 | 29 | 1062.4 |
| 20260507152637 | 79 | 315 | 0.0 | 1.7 | 0.00 | 0.00 | 0.00 | 29 | 1062.6 |
| 20260507152132 | 79 | 320 | 1.7 | 2.6 | 0.00 | 0.00 | 0.00 | 29 | 1062.6 |
| 20260507151629 | 78 | 299 | 0.9 | 2.6 | 0.00 | 0.00 | 0.00 | 29 | 1062.7 |
| 20260507151126 | 78 | 357 | 0.9 | 1.7 | 0.00 | 0.00 | 0.00 | 29 | 1062.6 |
| 20260507150623 | 75 | 234 | 1.7 | 1.7 | 0.00 | 0.00 | 0.00 | 32 | 1062.8 |
| 20260507150120 | 74 | 315 | 2.6 | 3.5 | 0.00 | 0.00 | 0.00 | 33 | 1062.8 |
| 20260507145615 | 75 | 303 | 1.7 | 1.7 | 0.00 | 0.00 | 0.00 | 32 | 1062.6 |
| 20260507145113 | 73 | 184 | 0.0 | 2.6 | 0.00 | 0.00 | 0.00 | 34 | 1062.7 |
| 20260507144613 | 73 | 163 | 0.9 | 1.7 | 0.00 | 0.00 | 0.00 | 35 | 1062.8 |
| 20260507144112 | 73 | 229 | 0.0 | 1.7 | 0.00 | 0.00 | 0.00 | 35 | 1062.7 |
| 20260507143608 | 72 | 7 | 0.9 | 1.7 | 0.00 | 0.00 | 0.00 | 38 | 1062.8 |
| 20260507143106 | 70 | 238 | 0.0 | 2.6 | 0.00 | 0.00 | 0.00 | 39 | 1062.6 |
| 20260507142601 | 69 | 214 | 0.9 | 2.6 | 0.00 | 0.00 | 0.00 | 38 | 1062.7 |
| 20260507142058 | 69 | 198 | 0.9 | 3.5 | 0.00 | 0.00 | 0.00 | 38 | 1062.7 |
| 20260507141554 | 68 | 149 | 0.0 | 1.7 | 0.00 | 0.00 | 0.00 | 39 | 1062.7 |
| 20260507141051 | 67 | 350 | 0.0 | 1.7 | 0.00 | 0.00 | 0.00 | 40 | 1062.7 |
| 20260507140547 | 65 | 317 | 1.7 | 1.7 | 0.00 | 0.00 | 0.00 | 41 | 1062.8 |
| 20260507140045 | 64 | 15 | 0.0 | 1.7 | 0.00 | 0.00 | 0.00 | 43 | 1062.7 |
| 20260507135542 | 63 | 233 | 0.0 | 0.9 | 0.00 | 0.00 | 0.00 | 43 | 1062.4 |
| 20260507135039 | 63 | 311 | 0.0 | 0.0 | 0.00 | 0.00 | 0.00 | 44 | 1062.5 |
| 20260507134536 | 63 | 228 | 0.0 | 0.9 | 0.00 | 0.00 | 0.00 | 43 | 1062.5 |
| 20260507134031 | 63 | 184 | 0.0 | 2.6 | 0.00 | 0.00 | 0.00 | 45 | 1062.4 |
| 20260507133528 | 62 | 214 | 0.0 | 1.7 | 0.00 | 0.00 | 0.00 | 47 | 1062.2 |
| 20260507133026 | 60 | 22 | 0.0 | 1.7 | 0.00 | 0.00 | 0.00 | 49 | 1062.3 |
| 20260507132522 | 59 | 304 | 0.0 | 1.7 | 0.00 | 0.00 | 0.00 | 57 | 1062.1 |
| 20260507132018 | 58 | 326 | 0.0 | 0.9 | 0.00 | 0.00 | 0.00 | 57 | 1062.0 |
| 20260507131516 | 58 | 37 | 0.0 | 0.9 | 0.00 | 0.00 | 0.00 | 57 | 1062.1 |
| 20260507131013 | 58 | 315 | 0.0 | 0.9 | 0.00 | 0.00 | 0.00 | 58 | 1062.1 |
| 20260507130510 | 58 | 302 | 0.0 | 0.9 | 0.00 | 0.00 | 0.00 | 57 | 1062.0 |
| 20260507130008 | 58 | 297 | 0.0 | 0.9 | 0.00 | 0.00 | 0.00 | 55 | 1061.8 |
| 20260507125506 | 59 | 315 | 0.0 | 0.9 | 0.00 | 0.00 | 0.00 | 55 | 1062.0 |
| 20260507125003 | 59 | 315 | 0.0 | 0.9 | 0.00 | 0.00 | 0.00 | 55 | 1062.1 |
| 20260507124459 | 59 | 228 | 0.0 | 1.7 | 0.00 | 0.00 | 0.00 | 53 | 1062.1 |
| 20260507123957 | 59 | 230 | 0.0 | 0.9 | 0.00 | 0.00 | 0.00 | 53 | 1062.0 |
| 20260507123455 | 59 | 294 | 0.0 | 0.9 | 0.00 | 0.00 | 0.00 | 52 | 1062.0 |
| 20260507122951 | 59 | 119 | 0.0 | 1.7 | 0.00 | 0.00 | 0.00 | 54 | 1061.9 |
| 20260507122446 | 58 | 238 | 0.0 | 1.7 | 0.00 | 0.00 | 0.00 | 56 | 1061.8 |
| 20260507121943 | 58 | 211 | 1.7 | 1.7 | 0.00 | 0.00 | 0.00 | 57 | 1061.8 |
| 20260507121438 | 58 | 285 | 1.7 | 1.7 | 0.00 | 0.00 | 0.00 | 58 | 1061.8 |
| 20260507120935 | 59 | 296 | 0.0 | 1.7 | 0.00 | 0.00 | 0.00 | 57 | 1061.8 |
| 20260507120431 | 58 | 215 | 0.9 | 1.7 | 0.00 | 0.00 | 0.00 | 57 | 1061.6 |
| 20260507115928 | 58 | 269 | 0.0 | 1.7 | 0.00 | 0.00 | 0.00 | 58 | 1061.7 |
| 20260507115424 | 58 | 315 | 0.9 | 1.7 | 0.00 | 0.00 | 0.00 | 59 | 1061.8 |
| 20260507114920 | 59 | 10 | 0.9 | 0.9 | 0.00 | 0.00 | 0.00 | 60 | 1061.9 |
| 20260507114417 | 59 | 317 | 0.0 | 0.9 | 0.00 | 0.00 | 0.00 | 58 | 1061.8 |
| 20260507113914 | 59 | 221 | 0.9 | 1.7 | 0.00 | 0.00 | 0.00 | 58 | 1062.0 |
| 20260507113411 | 59 | 243 | 0.0 | 0.9 | 0.00 | 0.00 | 0.00 | 57 | 1061.8 |
| 20260507112908 | 59 | 172 | 0.0 | 1.7 | 0.00 | 0.00 | 0.00 | 58 | 1061.9 |
| 20260507112406 | 59 | 203 | 0.9 | 2.6 | 0.00 | 0.00 | 0.00 | 59 | 1062.0 |
| 20260507111904 | 58 | 145 | 0.9 | 1.7 | 0.00 | 0.00 | 0.00 | 61 | 1061.9 |
| 20260507111400 | 58 | 322 | 0.0 | 0.9 | 0.00 | 0.00 | 0.00 | 62 | 1061.9 |
| 20260507110856 | 58 | 166 | 0.0 | 1.7 | 0.00 | 0.00 | 0.00 | 62 | 1061.9 |
| 20260507110352 | 59 | 258 | 0.9 | 0.9 | 0.00 | 0.00 | 0.00 | 61 | 1062.0 |
| 20260507105849 | 59 | 161 | 0.0 | 1.7 | 0.00 | 0.00 | 0.00 | 59 | 1062.0 |
| 20260507105346 | 59 | 358 | 0.0 | 1.7 | 0.00 | 0.00 | 0.00 | 60 | 1061.9 |
| 20260507104842 | 59 | 235 | 0.0 | 1.7 | 0.00 | 0.00 | 0.00 | 59 | 1061.8 |
| 20260507104339 | 59 | 326 | 0.0 | 0.0 | 0.00 | 0.00 | 0.00 | 58 | 1061.9 |
| 20260507103835 | 59 | 246 | 0.0 | 0.9 | 0.00 | 0.00 | 0.00 | 59 | 1061.9 |
| 20260507103332 | 58 | 353 | 0.0 | 1.7 | 0.00 | 0.00 | 0.00 | 60 | 1062.0 |
| 20260507102828 | 59 | 150 | 0.0 | 0.0 | 0.00 | 0.00 | 0.00 | 60 | 1062.0 |
| 20260507102325 | 59 | 347 | 0.0 | 0.9 | 0.00 | 0.00 | 0.00 | 59 | 1062.2 |
| 20260507101821 | 59 | 240 | 0.0 | 0.0 | 0.00 | 0.00 | 0.00 | 58 | 1062.2 |
| 20260507101316 | 59 | 230 | 0.0 | 0.0 | 0.00 | 0.00 | 0.00 | 58 | 1062.0 |
| 20260507100813 | 59 | 50 | 0.0 | 0.9 | 0.00 | 0.00 | 0.00 | 57 | 1062.2 |
| 20260507100311 | 59 | 315 | 0.0 | 0.0 | 0.00 | 0.00 | 0.00 | 58 | 1062.2 |
| 20260507095809 | 59 | 322 | 0.0 | 0.0 | 0.00 | 0.00 | 0.00 | 57 | 1062.3 |
| 20260507095306 | 59 | 322 | 0.0 | 0.9 | 0.00 | 0.00 | 0.00 | 56 | 1062.3 |
| 20260507094802 | 60 | 309 | 0.0 | 0.0 | 0.00 | 0.00 | 0.00 | 55 | 1062.2 |
| 20260507094259 | 60 | 339 | 0.0 | 0.0 | 0.00 | 0.00 | 0.00 | 54 | 1062.5 |
| 20260507093756 | 60 | 55 | 0.0 | 0.0 | 0.00 | 0.00 | 0.00 | 54 | 1062.4 |
| 20260507093255 | 60 | 296 | 0.0 | 0.9 | 0.00 | 0.00 | 0.00 | 54 | 1062.4 |
| 20260507092752 | 61 | 315 | 0.0 | 0.9 | 0.00 | 0.00 | 0.00 | 52 | 1062.6 |
| 20260507092248 | 61 | 208 | 0.0 | 1.7 | 0.00 | 0.00 | 0.00 | 52 | 1062.6 |
| 20260507091744 | 61 | 185 | 0.9 | 1.7 | 0.00 | 0.00 | 0.00 | 52 | 1062.5 |
| 20260507091241 | 61 | 304 | 0.0 | 0.9 | 0.00 | 0.00 | 0.00 | 52 | 1062.5 |
| 20260507090736 | 62 | 350 | 0.9 | 0.9 | 0.00 | 0.00 | 0.00 | 52 | 1062.6 |
| 20260507090233 | 62 | 322 | 0.0 | 0.9 | 0.00 | 0.00 | 0.00 | 52 | 1062.5 |
| 20260507085730 | 62 | 341 | 0.0 | 1.7 | 0.00 | 0.00 | 0.00 | 52 | 1062.8 |
| 20260507085227 | 62 | 322 | 0.0 | 0.0 | 0.00 | 0.00 | 0.00 | 52 | 1062.6 |
| 20260507084724 | 62 | 22 | 0.0 | 0.0 | 0.00 | 0.00 | 0.00 | 51 | 1062.8 |
| 20260507084221 | 62 | 296 | 0.0 | 0.9 | 0.00 | 0.00 | 0.00 | 50 | 1062.8 |
| 20260507083718 | 62 | 5 | 0.0 | 0.9 | 0.00 | 0.00 | 0.00 | 51 | 1062.6 |
| 20260507083215 | 62 | 45 | 0.9 | 0.9 | 0.00 | 0.00 | 0.00 | 52 | 1062.8 |
| 20260507082711 | 62 | 0 | 0.0 | 0.0 | 0.00 | 0.00 | 0.00 | 51 | 1062.7 |
| 20260507082207 | 62 | 217 | 0.0 | 0.9 | 0.00 | 0.00 | 0.00 | 50 | 1062.7 |
| 20260507081704 | 62 | 196 | 0.0 | 0.9 | 0.00 | 0.00 | 0.00 | 50 | 1062.8 |
| 20260507081159 | 62 | 230 | 0.0 | 0.9 | 0.00 | 0.00 | 0.00 | 51 | 1062.8 |
| 20260507080656 | 62 | 315 | 0.0 | 0.9 | 0.00 | 0.00 | 0.00 | 51 | 1062.8 |
| 20260507080153 | 62 | 306 | 0.0 | 0.9 | 0.00 | 0.00 | 0.00 | 51 | 1062.9 |
| 20260507075648 | 62 | 336 | 0.0 | 0.9 | 0.00 | 0.00 | 0.00 | 52 | 1062.8 |
| 20260507075144 | 62 | 50 | 0.0 | 0.0 | 0.00 | 0.00 | 0.00 | 51 | 1062.8 |
| 20260507074641 | 62 | 224 | 0.0 | 0.9 | 0.00 | 0.00 | 0.00 | 52 | 1063.0 |
| 20260507074139 | 61 | 230 | 0.0 | 0.0 | 0.00 | 0.00 | 0.00 | 52 | 1062.9 |
| 20260507073635 | 61 | 296 | 0.9 | 1.7 | 0.00 | 0.00 | 0.00 | 53 | 1063.0 |
| 20260507073132 | 62 | 293 | 0.0 | 0.9 | 0.00 | 0.00 | 0.00 | 53 | 1062.7 |
| 20260507072630 | 62 | 313 | 0.0 | 0.9 | 0.00 | 0.00 | 0.00 | 53 | 1062.8 |
| 20260507072127 | 63 | 308 | 0.0 | 0.9 | 0.00 | 0.00 | 0.00 | 52 | 1062.9 |
| 20260507071624 | 64 | 358 | 0.0 | 1.7 | 0.00 | 0.00 | 0.00 | 51 | 1062.9 |
| 20260507071120 | 64 | 335 | 0.0 | 1.7 | 0.00 | 0.00 | 0.00 | 51 | 1062.9 |
| 20260507070618 | 64 | 337 | 0.9 | 0.9 | 0.00 | 0.00 | 0.00 | 51 | 1063.0 |
| 20260507070115 | 64 | 309 | 0.0 | 0.9 | 0.00 | 0.00 | 0.00 | 50 | 1063.0 |
| 20260507065611 | 64 | 315 | 0.0 | 0.0 | 0.00 | 0.00 | 0.00 | 50 | 1062.8 |
| 20260507065108 | 64 | 322 | 0.0 | 0.0 | 0.00 | 0.00 | 0.00 | 50 | 1063.0 |
| 20260507064606 | 64 | 315 | 0.0 | 0.0 | 0.00 | 0.00 | 0.00 | 49 | 1063.2 |
| 20260507064104 | 64 | 299 | 0.0 | 0.9 | 0.00 | 0.00 | 0.00 | 49 | 1063.0 |
| 20260507063601 | 65 | 339 | 0.0 | 0.9 | 0.00 | 0.00 | 0.00 | 48 | 1062.9 |
| 20260507063058 | 65 | 269 | 0.0 | 0.9 | 0.00 | 0.00 | 0.00 | 49 | 1062.9 |
| 20260507062555 | 65 | 269 | 0.0 | 0.9 | 0.00 | 0.00 | 0.00 | 48 | 1063.0 |
| 20260507062052 | 64 | 269 | 0.0 | 0.9 | 0.00 | 0.00 | 0.00 | 47 | 1062.8 |
| 20260507061550 | 64 | 274 | 0.0 | 0.9 | 0.00 | 0.00 | 0.00 | 47 | 1062.9 |
| 20260507061048 | 65 | 304 | 0.0 | 0.9 | 0.00 | 0.00 | 0.00 | 46 | 1062.7 |
| 20260507060546 | 65 | 293 | 0.0 | 0.9 | 0.00 | 0.00 | 0.00 | 46 | 1062.8 |
| 20260507060042 | 65 | 283 | 0.0 | 0.9 | 0.00 | 0.00 | 0.00 | 45 | 1062.7 |
| 20260507055537 | 65 | 315 | 0.9 | 0.9 | 0.00 | 0.00 | 0.00 | 45 | 1062.9 |
| 20260507055033 | 65 | 309 | 0.0 | 0.9 | 0.00 | 0.00 | 0.00 | 45 | 1063.0 |
| 20260507054529 | 66 | 315 | 0.0 | 0.9 | 0.00 | 0.00 | 0.00 | 44 | 1062.7 |
| 20260507054026 | 66 | 315 | 0.0 | 0.9 | 0.00 | 0.00 | 0.00 | 43 | 1062.9 |
| 20260507053524 | 67 | 326 | 0.0 | 0.9 | 0.00 | 0.00 | 0.00 | 43 | 1062.6 |
| 20260507053023 | 67 | 308 | 0.0 | 1.7 | 0.00 | 0.00 | 0.00 | 42 | 1062.9 |
| 20260507052520 | 68 | 309 | 0.0 | 0.0 | 0.00 | 0.00 | 0.00 | 42 | 1062.7 |
| 20260507052017 | 68 | 317 | 0.0 | 0.0 | 0.00 | 0.00 | 0.00 | 42 | 1062.8 |
| 20260507051515 | 68 | 304 | 0.0 | 1.7 | 0.00 | 0.00 | 0.00 | 42 | 1062.8 |
| 20260507051011 | 67 | 306 | 0.0 | 0.0 | 0.00 | 0.00 | 0.00 | 41 | 1062.7 |
| 20260507050508 | 67 | 285 | 0.0 | 0.9 | 0.00 | 0.00 | 0.00 | 42 | 1062.8 |
| 20260507050005 | 68 | 314 | 0.0 | 0.9 | 0.00 | 0.00 | 0.00 | 41 | 1062.7 |
| 20260507045501 | 68 | 310 | 0.0 | 0.9 | 0.00 | 0.00 | 0.00 | 41 | 1062.5 |
| 20260507044958 | 68 | 217 | 0.0 | 0.0 | 0.00 | 0.00 | 0.00 | 39 | 1062.7 |
| 20260507044455 | 69 | 326 | 0.0 | 0.9 | 0.00 | 0.00 | 0.00 | 39 | 1062.6 |
| 20260507043951 | 69 | 309 | 0.0 | 0.0 | 0.00 | 0.00 | 0.00 | 38 | 1062.6 |
| 20260507043447 | 69 | 311 | 0.0 | 1.7 | 0.00 | 0.00 | 0.00 | 37 | 1062.6 |
| 20260507042944 | 70 | 309 | 0.0 | 0.9 | 0.00 | 0.00 | 0.00 | 36 | 1062.5 |
| 20260507042441 | 71 | 62 | 0.0 | 0.0 | 0.00 | 0.00 | 0.00 | 36 | 1062.5 |
| 20260507041936 | 70 | 269 | 0.0 | 0.0 | 0.00 | 0.00 | 0.00 | 36 | 1062.4 |
| 20260507041433 | 71 | 309 | 0.0 | 0.9 | 0.00 | 0.00 | 0.00 | 35 | 1062.3 |
| 20260507040931 | 71 | 315 | 0.0 | 0.9 | 0.00 | 0.00 | 0.00 | 34 | 1062.4 |
| 20260507040431 | 72 | 315 | 0.9 | 0.9 | 0.00 | 0.00 | 0.00 | 33 | 1062.4 |
| 20260507035927 | 72 | 309 | 0.0 | 0.9 | 0.00 | 0.00 | 0.00 | 32 | 1062.2 |
| 20260507035424 | 72 | 297 | 0.0 | 0.9 | 0.00 | 0.00 | 0.00 | 32 | 1062.2 |
| 20260507034921 | 72 | 299 | 0.0 | 1.7 | 0.00 | 0.00 | 0.00 | 32 | 1062.1 |
| 20260507034418 | 73 | 291 | 0.0 | 0.9 | 0.00 | 0.00 | 0.00 | 30 | 1062.1 |
| 20260507033916 | 73 | 269 | 0.0 | 0.9 | 0.00 | 0.00 | 0.00 | 30 | 1062.0 |
| 20260507033414 | 74 | 307 | 0.0 | 0.9 | 0.00 | 0.00 | 0.00 | 30 | 1062.0 |
| 20260507032911 | 75 | 235 | 0.0 | 0.9 | 0.00 | 0.00 | 0.00 | 28 | 1061.9 |
| 20260507032407 | 76 | 288 | 0.0 | 1.7 | 0.00 | 0.00 | 0.00 | 27 | 1061.9 |
| 20260507031903 | 76 | 264 | 1.7 | 1.7 | 0.00 | 0.00 | 0.00 | 26 | 1061.8 |
| 20260507031400 | 77 | 258 | 0.9 | 1.7 | 0.00 | 0.00 | 0.00 | 26 | 1061.6 |
| 20260507030857 | 77 | 263 | 1.7 | 2.6 | 0.00 | 0.00 | 0.00 | 25 | 1061.7 |
| 20260507030354 | 77 | 273 | 0.9 | 1.7 | 0.00 | 0.00 | 0.00 | 25 | 1061.7 |
| 20260507025851 | 77 | 236 | 1.7 | 1.7 | 0.00 | 0.00 | 0.00 | 24 | 1061.6 |
| 20260507025349 | 78 | 243 | 1.7 | 1.7 | 0.00 | 0.00 | 0.00 | 24 | 1061.7 |
| 20260507024846 | 78 | 261 | 1.7 | 2.6 | 0.00 | 0.00 | 0.00 | 24 | 1061.6 |
| 20260507024343 | 78 | 276 | 0.9 | 2.6 | 0.00 | 0.00 | 0.00 | 24 | 1061.5 |
| 20260507023839 | 79 | 233 | 2.6 | 3.5 | 0.00 | 0.00 | 0.00 | 24 | 1061.2 |
| 20260507023336 | 79 | 267 | 0.9 | 3.5 | 0.00 | 0.00 | 0.00 | 23 | 1061.4 |
| 20260507022833 | 79 | 233 | 3.5 | 3.5 | 0.00 | 0.00 | 0.00 | 23 | 1061.3 |
| 20260507022330 | 79 | 220 | 3.5 | 4.3 | 0.00 | 0.00 | 0.00 | 23 | 1061.2 |
| 20260507021825 | 79 | 244 | 1.7 | 2.6 | 0.00 | 0.00 | 0.00 | 23 | 1061.2 |
| 20260507021321 | 80 | 252 | 1.7 | 2.6 | 0.00 | 0.00 | 0.00 | 23 | 1061.2 |
| 20260507020819 | 80 | 236 | 1.7 | 3.5 | 0.00 | 0.00 | 0.00 | 23 | 1061.2 |
| 20260507020315 | 80 | 255 | 1.7 | 3.5 | 0.00 | 0.00 | 0.00 | 22 | 1061.1 |
| 20260507015813 | 80 | 242 | 1.7 | 3.5 | 0.00 | 0.00 | 0.00 | 22 | 1061.1 |
| 20260507015310 | 81 | 278 | 1.7 | 4.3 | 0.00 | 0.00 | 0.00 | 22 | 1061.1 |
| 20260507014807 | 81 | 229 | 0.9 | 4.3 | 0.00 | 0.00 | 0.00 | 22 | 1061.1 |
| 20260507014304 | 81 | 267 | 0.9 | 1.7 | 0.00 | 0.00 | 0.00 | 21 | 1060.9 |
| 20260507013800 | 81 | 261 | 1.7 | 5.2 | 0.00 | 0.00 | 0.00 | 22 | 1061.0 |
| 20260507013258 | 82 | 276 | 2.6 | 4.3 | 0.00 | 0.00 | 0.00 | 22 | 1061.0 |
| 20260507012755 | 82 | 269 | 0.0 | 4.3 | 0.00 | 0.00 | 0.00 | 22 | 1061.1 |
| 20260507012250 | 82 | 222 | 2.6 | 5.2 | 0.00 | 0.00 | 0.00 | 21 | 1061.0 |
| 20260507011748 | 83 | 218 | 1.7 | 5.2 | 0.00 | 0.00 | 0.00 | 21 | 1061.2 |
| 20260507011244 | 87 | 226 | 1.7 | 2.6 | 0.00 | 0.00 | 0.00 | 19 | 1061.2 |
| 20260507010744 | 86 | 282 | 0.9 | 4.3 | 0.00 | 0.00 | 0.00 | 20 | 1061.2 |
| 20260507010240 | 85 | 269 | 0.0 | 2.6 | 0.00 | 0.00 | 0.00 | 21 | 1060.9 |
| 20260507005738 | 84 | 189 | 2.6 | 4.3 | 0.00 | 0.00 | 0.00 | 21 | 1061.0 |
| 20260507005234 | 85 | 231 | 0.9 | 4.3 | 0.00 | 0.00 | 0.00 | 21 | 1061.0 |
| 20260507004731 | 85 | 242 | 3.5 | 5.2 | 0.00 | 0.00 | 0.00 | 20 | 1061.1 |
| 20260507004229 | 86 | 209 | 6.1 | 6.1 | 0.00 | 0.00 | 0.00 | 20 | 1061.1 |
| 20260507003724 | 87 | 189 | 1.7 | 1.7 | 0.00 | 0.00 | 0.00 | 20 | 1060.9 |
| 20260507003220 | 87 | 263 | 2.6 | 5.2 | 0.00 | 0.00 | 0.00 | 19 | 1061.1 |
| 20260507002716 | 86 | 243 | 0.9 | 2.6 | 0.00 | 0.00 | 0.00 | 19 | 1061.0 |
| 20260507002212 | 86 | 268 | 0.9 | 3.5 | 0.00 | 0.00 | 0.00 | 19 | 1061.1 |
| 20260507001709 | 87 | 239 | 0.9 | 2.6 | 0.00 | 0.00 | 0.00 | 19 | 1060.9 |
| 20260507001207 | 86 | 290 | 0.0 | 1.7 | 0.00 | 0.00 | 0.00 | 20 | 1060.9 |
| 20260507000702 | 84 | 265 | 1.7 | 2.6 | 0.00 | 0.00 | 0.00 | 20 | 1061.0 |
| 20260507000158 | 85 | 345 | 1.7 | 2.6 | 0.00 | 0.00 | 0.00 | 20 | 1061.1 |
| 20260506235655 | 85 | 359 | 5.2 | 5.2 | 0.00 | 0.00 | 0.00 | 21 | 1061.0 |
| 20260506235151 | 85 | 277 | 0.9 | 3.5 | 0.00 | 0.00 | 0.00 | 20 | 1061.2 |
| 20260506234648 | 85 | 226 | 1.7 | 3.5 | 0.00 | 0.00 | 0.00 | 21 | 1061.2 |
| 20260506234145 | 87 | 283 | 2.6 | 5.2 | 0.00 | 0.00 | 0.00 | 20 | 1061.1 |
| 20260506233642 | 86 | 215 | 0.9 | 5.2 | 0.00 | 0.00 | 0.00 | 20 | 1061.1 |
| 20260506233139 | 86 | 257 | 0.0 | 1.7 | 0.00 | 0.00 | 0.00 | 20 | 1060.9 |
| 20260506232635 | 84 | 229 | 1.7 | 2.6 | 0.00 | 0.00 | 0.00 | 20 | 1061.2 |
| 20260506232131 | 85 | 332 | 2.6 | 3.5 | 0.00 | 0.00 | 0.00 | 20 | 1061.0 |
| 20260506231628 | 84 | 251 | 0.9 | 5.2 | 0.00 | 0.00 | 0.00 | 20 | 1061.3 |
| 20260506231127 | 84 | 303 | 2.6 | 5.2 | 0.00 | 0.00 | 0.00 | 20 | 1061.4 |
| 20260506230623 | 85 | 313 | 0.0 | 5.2 | 0.00 | 0.00 | 0.00 | 20 | 1061.4 |
| 20260506230120 | 86 | 245 | 1.7 | 3.5 | 0.00 | 0.00 | 0.00 | 19 | 1061.3 |
| 20260506225616 | 85 | 254 | 1.7 | 2.6 | 0.00 | 0.00 | 0.00 | 20 | 1061.4 |
| 20260506225113 | 84 | 18 | 0.9 | 3.5 | 0.00 | 0.00 | 0.00 | 21 | 1061.5 |
| 20260506224610 | 84 | 266 | 2.6 | 5.2 | 0.00 | 0.00 | 0.00 | 22 | 1061.7 |
| 20260506224106 | 85 | 318 | 3.5 | 6.1 | 0.00 | 0.00 | 0.00 | 20 | 1061.8 |
| 20260506223602 | 85 | 311 | 2.6 | 6.1 | 0.00 | 0.00 | 0.00 | 20 | 1061.7 |
| 20260506223059 | 84 | 347 | 2.6 | 5.2 | 0.00 | 0.00 | 0.00 | 21 | 1061.8 |
| 20260506222556 | 84 | 53 | 1.7 | 3.5 | 0.00 | 0.00 | 0.00 | 20 | 1061.9 |
| 20260506222052 | 84 | 195 | 1.7 | 5.2 | 0.00 | 0.00 | 0.00 | 20 | 1061.9 |
| 20260506221550 | 84 | 288 | 3.5 | 5.2 | 0.00 | 0.00 | 0.00 | 21 | 1061.9 |
| 20260506221048 | 85 | 284 | 1.7 | 2.6 | 0.00 | 0.00 | 0.00 | 21 | 1061.9 |
| 20260506220543 | 83 | 340 | 4.3 | 6.1 | 0.00 | 0.00 | 0.00 | 22 | 1062.1 |
| 20260506220039 | 82 | 312 | 2.6 | 3.5 | 0.00 | 0.00 | 0.00 | 23 | 1062.2 |
| 20260506215536 | 82 | 286 | 5.2 | 7.0 | 0.00 | 0.00 | 0.00 | 22 | 1062.2 |
| 20260506215032 | 83 | 303 | 3.5 | 5.2 | 0.00 | 0.00 | 0.00 | 21 | 1062.2 |
| 20260506214529 | 83 | 346 | 4.3 | 5.2 | 0.00 | 0.00 | 0.00 | 22 | 1062.3 |
| 20260506214026 | 82 | 265 | 2.6 | 5.2 | 0.00 | 0.00 | 0.00 | 22 | 1062.4 |
| 20260506213524 | 84 | 347 | 1.7 | 4.3 | 0.00 | 0.00 | 0.00 | 23 | 1062.7 |
| 20260506213021 | 86 | 220 | 3.5 | 5.2 | 0.00 | 0.00 | 0.00 | 22 | 1062.5 |
| 20260506212518 | 84 | 312 | 0.0 | 3.5 | 0.00 | 0.00 | 0.00 | 24 | 1062.8 |
| 20260506212013 | 84 | 6 | 1.7 | 3.5 | 0.00 | 0.00 | 0.00 | 22 | 1062.7 |
| 20260506211508 | 84 | 272 | 5.2 | 5.2 | 0.00 | 0.00 | 0.00 | 23 | 1062.6 |
| 20260506211006 | 84 | 249 | 0.0 | 4.3 | 0.00 | 0.00 | 0.00 | 22 | 1062.8 |
| 20260506210502 | 82 | 350 | 1.7 | 4.3 | 0.00 | 0.00 | 0.00 | 23 | 1062.9 |
| 20260506205959 | 83 | 203 | 1.7 | 3.5 | 0.00 | 0.00 | 0.00 | 22 | 1063.0 |
| 20260506205455 | 83 | 285 | 1.7 | 3.5 | 0.00 | 0.00 | 0.00 | 22 | 1063.0 |
| 20260506204951 | 82 | 326 | 1.7 | 4.3 | 0.00 | 0.00 | 0.00 | 24 | 1063.3 |
| 20260506204450 | 83 | 341 | 1.7 | 5.2 | 0.00 | 0.00 | 0.00 | 23 | 1063.4 |
| 20260506203947 | 82 | 324 | 2.6 | 6.1 | 0.00 | 0.00 | 0.00 | 22 | 1063.3 |
| 20260506203444 | 80 | 215 | 1.7 | 2.6 | 0.00 | 0.00 | 0.00 | 23 | 1063.4 |
| 20260506202941 | 82 | 306 | 6.1 | 7.8 | 0.00 | 0.00 | 0.00 | 24 | 1063.4 |
| 20260506202438 | 81 | 9 | 1.7 | 3.5 | 0.00 | 0.00 | 0.00 | 24 | 1063.3 |
| 20260506201934 | 81 | 275 | 2.6 | 3.5 | 0.00 | 0.00 | 0.00 | 25 | 1063.4 |
| 20260506201432 | 81 | 312 | 4.3 | 5.2 | 0.00 | 0.00 | 0.00 | 25 | 1063.5 |
| 20260506200928 | 81 | 309 | 1.7 | 5.2 | 0.00 | 0.00 | 0.00 | 25 | 1063.6 |
| 20260506200425 | 81 | 294 | 0.9 | 4.3 | 0.00 | 0.00 | 0.00 | 25 | 1063.4 |
| 20260506195921 | 81 | 277 | 1.7 | 2.6 | 0.00 | 0.00 | 0.00 | 24 | 1063.5 |
| 20260506195418 | 80 | 99 | 1.7 | 4.3 | 0.00 | 0.00 | 0.00 | 24 | 1063.7 |
| 20260506194915 | 81 | 317 | 0.9 | 3.5 | 0.00 | 0.00 | 0.00 | 24 | 1063.7 |
| 20260506194412 | 82 | 295 | 5.2 | 5.2 | 0.00 | 0.00 | 0.00 | 23 | 1063.9 |
| 20260506193909 | 80 | 349 | 3.5 | 5.2 | 0.00 | 0.00 | 0.00 | 24 | 1063.8 |
| 20260506193406 | 80 | 294 | 1.7 | 3.5 | 0.00 | 0.00 | 0.00 | 25 | 1064.0 |